createdAt,value
2018-04-09T00:00:32.577Z,91.74
2018-04-09T00:01:33.151Z,93.55
2018-04-09T00:02:33.724Z,93.84
2018-04-09T00:03:34.296Z,94.41
2018-04-09T00:04:34.872Z,94.60
2018-04-09T00:05:35.453Z,94.51
2018-04-09T00:06:36.028Z,93.84
2018-04-09T00:07:36.601Z,94.02
2018-04-09T00:08:37.174Z,94.79
2018-04-09T00:09:37.746Z,93.07
2018-04-09T00:10:38.319Z,92.69
2018-04-09T00:11:38.893Z,93.74
2018-04-09T00:12:39.465Z,92.30
2018-04-09T00:13:40.039Z,92.79
2018-04-09T00:14:40.612Z,93.16
2018-04-09T00:15:41.187Z,90.06
2018-04-09T00:16:41.762Z,90.20
2018-04-09T00:17:42.336Z,91.64
2018-04-09T00:18:42.909Z,90.20
2018-04-09T00:19:43.483Z,90.06
2018-04-09T00:20:44.057Z,90.78
2018-04-09T00:21:44.629Z,92.50
2018-04-09T00:22:45.201Z,90.20
2018-04-09T00:23:45.776Z,91.64
2018-04-09T00:24:46.348Z,91.74
2018-04-09T00:25:46.919Z,90.68
2018-04-09T00:26:47.493Z,90.39
2018-04-09T00:27:48.066Z,88.92
2018-04-09T00:28:48.642Z,87.48
2018-04-09T00:29:49.225Z,85.48
2018-04-09T00:30:49.799Z,83.86
2018-04-09T00:31:50.381Z,83.09
2018-04-09T00:32:50.954Z,82.52
2018-04-09T00:33:51.530Z,82.32
2018-04-09T00:34:52.108Z,83.95
2018-04-09T00:35:52.687Z,83.18
2018-04-09T00:36:53.263Z,82.81
2018-04-09T00:37:53.836Z,84.05
2018-04-09T00:38:54.425Z,82.71
2018-04-09T00:39:54.996Z,83.76
2018-04-09T00:40:55.568Z,83.86
2018-04-09T00:41:56.143Z,84.52
2018-04-09T00:42:56.716Z,83.18
2018-04-09T00:43:57.289Z,83.86
2018-04-09T00:44:57.863Z,84.05
2018-04-09T00:45:58.440Z,82.61
2018-04-09T00:46:59.012Z,81.85
2018-04-09T00:47:59.583Z,81.27
2018-04-09T00:49:00.166Z,80.70
2018-04-09T00:50:00.739Z,82.23
2018-04-09T00:51:01.313Z,82.90
2018-04-09T00:52:01.884Z,84.72
2018-04-09T00:53:02.467Z,82.71
2018-04-09T00:54:03.041Z,80.80
2018-04-09T00:55:03.614Z,85.96
2018-04-09T00:56:04.188Z,82.14
2018-04-09T00:57:04.761Z,83.95
2018-04-09T00:58:05.335Z,84.72
2018-04-09T00:59:05.907Z,83.57
2018-04-09T01:00:06.480Z,83.00
2018-04-09T01:01:07.053Z,83.00
2018-04-09T01:02:07.626Z,84.33
2018-04-09T01:03:08.198Z,83.67
2018-04-09T01:04:08.771Z,85.00
2018-04-09T01:05:09.342Z,81.76
2018-04-09T01:06:09.928Z,83.57
2018-04-09T01:07:10.502Z,83.38
2018-04-09T01:08:11.076Z,82.23
2018-04-09T01:09:11.649Z,82.90
2018-04-09T01:10:12.222Z,82.81
2018-04-09T01:11:12.795Z,85.29
2018-04-09T01:12:13.369Z,84.81
2018-04-09T01:13:13.944Z,86.38
2018-04-09T01:14:14.518Z,85.19
2018-04-09T01:15:15.094Z,84.62
2018-04-09T01:16:15.664Z,83.95
2018-04-09T01:17:16.236Z,85.29
2018-04-09T01:18:16.810Z,85.86
2018-04-09T01:19:17.382Z,83.67
2018-04-09T01:20:17.954Z,83.00
2018-04-09T01:21:18.528Z,81.47
2018-04-09T01:22:19.100Z,81.37
2018-04-09T01:23:19.673Z,80.61
2018-04-09T01:24:20.246Z,81.47
2018-04-09T01:25:20.820Z,83.86
2018-04-09T01:26:21.393Z,82.04
2018-04-09T01:27:21.969Z,81.76
2018-04-09T01:28:22.541Z,83.38
2018-04-09T01:29:23.115Z,82.42
2018-04-09T01:30:23.688Z,81.37
2018-04-09T01:31:24.270Z,79.27
2018-04-09T01:32:24.893Z,80.04
2018-04-09T01:33:25.418Z,79.46
2018-04-09T01:34:25.992Z,78.79
2018-04-09T01:35:26.577Z,76.84
2018-04-09T01:36:27.151Z,74.84
2018-04-09T01:37:27.726Z,77.36
2018-04-09T01:38:28.298Z,77.94
2018-04-09T01:39:28.879Z,78.99
2018-04-09T01:40:29.452Z,77.55
2018-04-09T01:41:30.040Z,78.79
2018-04-09T01:42:30.622Z,76.88
2018-04-09T01:43:31.196Z,76.84
2018-04-09T01:44:31.772Z,81.27
2018-04-09T01:45:32.353Z,77.74
2018-04-09T01:46:32.957Z,77.89
2018-04-09T01:47:33.508Z,76.75
2018-04-09T01:48:34.081Z,78.03
2018-04-09T01:49:34.653Z,77.94
2018-04-09T01:50:35.225Z,77.45
2018-04-09T01:51:35.798Z,79.27
2018-04-09T01:52:36.372Z,78.99
2018-04-09T01:53:36.943Z,77.84
2018-04-09T01:54:37.516Z,78.12
2018-04-09T01:55:38.092Z,76.27
2018-04-09T01:57:54.130Z,76.94
2018-04-09T01:58:54.702Z,80.61
2018-04-09T01:59:55.274Z,80.61
2018-04-09T02:00:55.846Z,80.13
2018-04-09T02:01:56.418Z,81.37
2018-04-09T02:02:56.992Z,81.95
2018-04-09T02:03:57.565Z,82.18
2018-04-09T02:04:58.137Z,79.75
2018-04-09T02:05:58.709Z,79.17
2018-04-09T02:06:59.285Z,78.60
2018-04-09T02:07:59.854Z,77.84
2018-04-09T02:09:00.428Z,74.55
2018-04-09T02:10:01.001Z,74.74
2018-04-09T02:11:01.579Z,74.55
2018-04-09T02:12:02.148Z,73.79
2018-04-09T02:13:02.722Z,75.22
2018-04-09T02:14:03.307Z,73.88
2018-04-09T02:15:03.882Z,73.69
2018-04-09T02:16:04.456Z,73.60
2018-04-09T02:17:05.029Z,71.21
2018-04-09T02:18:05.603Z,70.45
2018-04-09T02:19:06.176Z,70.73
2018-04-09T02:20:06.748Z,69.11
2018-04-09T02:21:07.320Z,69.97
2018-04-09T02:22:07.892Z,68.73
2018-04-09T02:23:08.465Z,67.49
2018-04-09T02:24:09.038Z,67.97
2018-04-09T02:25:09.611Z,68.06
2018-04-09T02:26:10.185Z,68.06
2018-04-09T02:27:10.758Z,67.30
2018-04-09T02:28:11.331Z,65.96
2018-04-09T02:29:11.907Z,65.39
2018-04-09T02:30:12.479Z,63.35
2018-04-09T02:31:13.053Z,61.83
2018-04-09T02:32:13.637Z,60.02
2018-04-09T02:33:14.211Z,61.73
2018-04-09T02:34:14.785Z,60.39
2018-04-09T02:35:15.357Z,60.58
2018-04-09T02:36:15.930Z,60.49
2018-04-09T02:37:16.704Z,62.15
2018-04-09T02:38:17.275Z,63.96
2018-04-09T02:39:17.851Z,63.86
2018-04-09T02:40:18.425Z,61.38
2018-04-09T02:41:18.996Z,61.95
2018-04-09T02:42:19.572Z,61.92
2018-04-09T02:43:20.142Z,61.19
2018-04-09T02:44:20.716Z,62.11
2018-04-09T02:45:21.299Z,60.11
2018-04-09T02:46:21.877Z,58.51
2018-04-09T02:47:22.444Z,61.66
2018-04-09T02:48:23.016Z,62.15
2018-04-09T02:49:23.588Z,62.24
2018-04-09T02:50:24.162Z,61.47
2018-04-09T02:51:24.744Z,59.95
2018-04-09T02:52:25.518Z,61.73
2018-04-09T02:53:26.089Z,59.92
2018-04-09T02:54:26.673Z,59.53
2018-04-09T02:55:27.245Z,60.11
2018-04-09T02:56:27.824Z,58.48
2018-04-09T02:57:28.395Z,58.11
2018-04-09T02:58:28.976Z,56.10
2018-04-09T02:59:29.555Z,55.72
2018-04-09T03:00:30.116Z,54.45
2018-04-09T03:01:30.692Z,56.58
2018-04-09T03:02:31.263Z,56.01
2018-04-09T03:03:31.838Z,57.15
2018-04-09T03:04:32.409Z,56.77
2018-04-09T03:05:32.981Z,54.64
2018-04-09T03:06:33.555Z,55.34
2018-04-09T03:07:34.126Z,55.62
2018-04-09T03:08:34.711Z,52.67
2018-04-09T03:09:35.289Z,56.67
2018-04-09T03:10:35.855Z,55.34
2018-04-09T03:11:36.429Z,54.77
2018-04-09T03:12:37.000Z,54.26
2018-04-09T03:13:37.571Z,54.07
2018-04-09T03:14:38.144Z,51.78
2018-04-09T03:15:38.752Z,51.97
2018-04-09T03:16:39.302Z,50.92
2018-04-09T03:17:39.876Z,51.40
2018-04-09T03:18:40.460Z,51.21
2018-04-09T03:19:41.032Z,50.35
2018-04-09T03:20:41.606Z,51.40
2018-04-09T03:21:42.179Z,50.63
2018-04-09T03:22:42.751Z,50.92
2018-04-09T03:23:43.324Z,51.12
2018-04-09T03:24:43.896Z,49.59
2018-04-09T03:25:44.467Z,50.16
2018-04-09T03:26:45.038Z,47.68
2018-04-09T03:27:45.610Z,48.54
2018-04-09T03:28:46.184Z,50.07
2018-04-09T03:29:46.757Z,47.97
2018-04-09T03:30:47.335Z,49.11
2018-04-09T03:31:47.906Z,46.15
2018-04-09T03:32:48.477Z,47.49
2018-04-09T03:33:49.060Z,45.58
2018-04-09T03:34:49.633Z,47.20
2018-04-09T03:35:50.206Z,45.78
2018-04-09T03:36:50.784Z,45.39
2018-04-09T03:37:51.372Z,46.54
2018-04-09T03:38:51.925Z,45.49
2018-04-09T03:39:52.496Z,44.37
2018-04-09T03:40:53.068Z,46.06
2018-04-09T03:41:53.640Z,42.34
2018-04-09T03:42:54.216Z,44.17
2018-04-09T03:43:54.783Z,44.92
2018-04-09T03:44:55.356Z,45.20
2018-04-09T03:45:55.930Z,45.49
2018-04-09T03:46:56.503Z,44.82
2018-04-09T03:47:57.076Z,45.20
2018-04-09T03:48:57.652Z,43.96
2018-04-09T03:49:58.220Z,43.96
2018-04-09T03:50:58.791Z,44.82
2018-04-09T03:51:59.365Z,44.65
2018-04-09T03:52:59.936Z,48.07
2018-04-09T03:54:00.508Z,45.01
2018-04-09T03:55:01.092Z,48.92
2018-04-09T03:56:01.664Z,46.15
2018-04-09T03:57:02.236Z,47.30
2018-04-09T03:58:02.810Z,46.15
2018-04-09T03:59:03.379Z,45.10
2018-04-09T04:00:03.954Z,46.63
2018-04-09T04:01:04.523Z,47.58
2018-04-09T04:02:05.095Z,44.82
2018-04-09T04:03:05.666Z,40.51
2018-04-09T04:04:06.241Z,41.58
2018-04-09T04:05:06.822Z,42.22
2018-04-09T04:06:07.407Z,40.44
2018-04-09T04:07:07.978Z,37.36
2018-04-09T04:08:08.551Z,37.27
2018-04-09T04:09:09.123Z,37.93
2018-04-09T04:10:09.695Z,37.93
2018-04-09T04:11:10.270Z,40.15
2018-04-09T04:12:10.841Z,41.39
2018-04-09T04:13:11.424Z,39.08
2018-04-09T04:14:11.998Z,40.89
2018-04-09T04:15:12.571Z,44.15
2018-04-09T04:16:13.140Z,45.20
2018-04-09T04:17:13.710Z,45.49
2018-04-09T04:18:14.283Z,45.01
2018-04-09T04:19:14.855Z,40.63
2018-04-09T04:20:15.427Z,42.53
2018-04-09T04:21:15.998Z,42.03
2018-04-09T04:22:16.570Z,39.94
2018-04-09T04:23:17.141Z,38.22
2018-04-09T04:24:17.713Z,36.22
2018-04-09T04:25:18.287Z,35.17
2018-04-09T04:26:18.860Z,34.88
2018-04-09T04:27:19.433Z,33.64
2018-04-09T04:28:20.048Z,34.88
2018-04-09T04:29:20.578Z,35.27
2018-04-09T04:30:21.150Z,36.41
2018-04-09T04:31:21.721Z,37.17
2018-04-09T04:32:22.293Z,36.79
2018-04-09T04:33:22.866Z,39.08
2018-04-09T04:34:23.436Z,37.36
2018-04-09T04:35:24.009Z,36.79
2018-04-09T04:36:24.591Z,39.00
2018-04-09T04:37:25.174Z,40.03
2018-04-09T04:38:25.747Z,39.10
2018-04-09T04:39:26.321Z,39.08
2018-04-09T04:40:26.894Z,39.10
2018-04-09T04:41:27.467Z,39.19
2018-04-09T04:42:28.038Z,39.86
2018-04-09T04:43:28.612Z,35.08
2018-04-09T04:44:29.182Z,34.60
2018-04-09T04:45:29.753Z,38.24
2018-04-09T04:46:30.326Z,34.33
2018-04-09T04:47:30.900Z,26.79
2018-04-09T04:48:31.472Z,37.86
2018-04-09T04:49:32.046Z,38.24
2018-04-09T04:50:32.630Z,38.34
2018-04-09T04:51:33.207Z,35.27
2018-04-09T04:52:33.779Z,32.69
2018-04-09T04:53:34.358Z,32.98
2018-04-09T04:54:34.940Z,31.93
2018-04-09T04:55:35.514Z,32.69
2018-04-09T04:56:36.097Z,32.21
2018-04-09T04:57:36.672Z,32.40
2018-04-09T04:58:37.247Z,31.09
2018-04-09T04:59:37.819Z,33.74
2018-04-09T05:00:38.393Z,31.47
2018-04-09T05:01:38.966Z,35.00
2018-04-09T05:02:39.539Z,34.81
2018-04-09T05:03:40.111Z,34.98
2018-04-09T05:04:40.683Z,36.14
2018-04-09T05:05:41.257Z,35.76
2018-04-09T05:06:41.835Z,36.14
2018-04-09T05:07:42.405Z,34.50
2018-04-09T05:08:42.990Z,32.40
2018-04-09T05:09:43.565Z,29.26
2018-04-09T05:10:44.138Z,25.92
2018-04-09T05:11:44.715Z,26.88
2018-04-09T05:12:45.284Z,26.40
2018-04-09T05:13:45.856Z,25.45
2018-04-09T05:14:46.428Z,22.78
2018-04-09T05:15:47.000Z,21.25
2018-04-09T05:16:47.575Z,18.40
2018-04-09T05:17:48.149Z,15.64
2018-04-09T05:18:48.725Z,17.07
2018-04-09T05:19:49.297Z,14.01
2018-04-09T05:20:49.868Z,13.45
2018-04-09T05:21:50.443Z,13.54
2018-04-09T05:22:51.020Z,13.82
2018-04-09T05:23:51.593Z,13.35
2018-04-09T05:24:52.167Z,13.45
2018-04-09T05:25:52.742Z,14.69
2018-04-09T05:26:53.316Z,12.49
2018-04-09T05:27:53.891Z,12.49
2018-04-09T05:28:54.471Z,13.16
2018-04-09T05:29:55.051Z,11.82
2018-04-09T05:30:55.626Z,12.11
2018-04-09T05:31:56.201Z,12.11
2018-04-09T05:32:56.775Z,10.30
2018-04-09T05:33:57.347Z,11.63
2018-04-09T05:34:57.921Z,11.82
2018-04-09T05:35:58.495Z,11.92
2018-04-09T05:36:59.071Z,11.06
2018-04-09T05:37:59.644Z,12.40
2018-04-09T05:39:00.219Z,12.01
2018-04-09T05:40:00.793Z,12.40
2018-04-09T05:41:01.364Z,11.92
2018-04-09T05:42:01.940Z,12.01
2018-04-09T05:43:02.525Z,10.21
2018-04-09T05:44:03.099Z,12.40
2018-04-09T05:45:03.675Z,13.17
2018-04-09T05:46:04.248Z,12.30
2018-04-09T05:47:04.822Z,13.54
2018-04-09T05:48:05.397Z,12.12
2018-04-09T05:49:05.970Z,13.06
2018-04-09T05:50:06.547Z,13.54
2018-04-09T05:51:07.121Z,12.59
2018-04-09T05:52:07.696Z,13.54
2018-04-09T05:53:08.269Z,12.69
2018-04-09T05:54:08.846Z,12.88
2018-04-09T05:55:09.422Z,11.73
2018-04-09T05:56:09.997Z,12.21
2018-04-09T05:57:10.572Z,11.44
2018-04-09T05:58:11.146Z,12.49
2018-04-09T05:59:11.725Z,12.69
2018-04-09T06:00:12.334Z,12.49
2018-04-09T06:01:12.873Z,12.49
2018-04-09T06:02:13.449Z,13.64
2018-04-09T06:03:14.024Z,14.69
2018-04-09T06:04:14.599Z,15.17
2018-04-09T06:05:58.421Z,15.74
2018-04-09T06:06:59.002Z,15.74
2018-04-09T06:07:59.585Z,16.98
2018-04-09T06:09:00.170Z,17.65
2018-04-09T06:10:00.745Z,18.89
2018-04-09T06:11:01.325Z,18.22
2018-04-09T06:12:01.897Z,17.65
2018-04-09T06:13:02.471Z,17.46
2018-04-09T06:14:03.050Z,15.84
2018-04-09T06:15:03.635Z,16.31
2018-04-09T06:16:04.264Z,16.31
2018-04-09T06:17:04.783Z,17.65
2018-04-09T06:18:05.360Z,18.41
2018-04-09T06:19:05.932Z,18.89
2018-04-09T06:20:06.507Z,19.08
2018-04-09T06:21:07.095Z,19.66
2018-04-09T06:22:07.668Z,20.23
2018-04-09T06:23:08.247Z,21.00
2018-04-09T06:24:08.821Z,20.33
2018-04-09T06:25:09.396Z,20.72
2018-04-09T06:26:09.970Z,20.90
2018-04-09T06:27:10.546Z,22.05
2018-04-09T06:28:11.130Z,23.58
2018-04-09T06:29:11.696Z,23.57
2018-04-09T06:30:12.270Z,22.80
2018-04-09T06:31:12.847Z,23.18
2018-04-09T06:32:13.423Z,23.28
2018-04-09T06:33:14.010Z,24.23
2018-04-09T06:34:14.587Z,24.99
2018-04-09T06:35:15.166Z,25.09
2018-04-09T06:36:15.737Z,24.43
2018-04-09T06:37:16.326Z,24.71
2018-04-09T06:38:16.900Z,24.62
2018-04-09T06:39:17.490Z,24.99
2018-04-09T06:40:18.104Z,25.76
2018-04-09T06:41:18.639Z,25.76
2018-04-09T06:42:19.214Z,25.67
2018-04-09T06:43:19.790Z,25.95
2018-04-09T06:44:20.365Z,26.06
2018-04-09T06:45:20.940Z,26.81
2018-04-09T06:46:21.517Z,27.68
2018-04-09T06:47:22.093Z,28.64
2018-04-09T06:48:22.668Z,30.64
2018-04-09T06:49:23.245Z,29.30
2018-04-09T06:50:23.820Z,29.02
2018-04-09T06:51:24.396Z,29.88
2018-04-09T06:52:24.973Z,28.83
2018-04-09T06:53:25.547Z,27.97
2018-04-09T06:54:26.123Z,29.78
2018-04-09T06:55:26.698Z,29.59
2018-04-09T06:56:27.272Z,29.21
2018-04-09T06:57:27.848Z,28.16
2018-04-09T06:58:28.424Z,28.73
2018-04-09T06:59:29.001Z,28.64
2018-04-09T07:00:29.581Z,28.83
2018-04-09T07:01:30.152Z,28.73
2018-04-09T07:02:30.730Z,29.88
2018-04-09T07:03:31.303Z,28.64
2018-04-09T07:04:31.879Z,28.25
2018-04-09T07:05:32.467Z,29.11
2018-04-09T07:06:33.041Z,28.92
2018-04-09T07:07:33.619Z,29.49
2018-04-09T07:08:34.201Z,28.83
2018-04-09T07:09:34.776Z,27.95
2018-04-09T07:10:35.352Z,28.16
2018-04-09T07:11:35.940Z,27.28
2018-04-09T07:12:36.526Z,26.43
2018-04-09T07:13:37.101Z,26.90
2018-04-09T07:14:37.677Z,26.73
2018-04-09T07:15:38.262Z,27.00
2018-04-09T07:16:38.839Z,28.44
2018-04-09T07:17:39.415Z,29.59
2018-04-09T07:18:39.992Z,30.74
2018-04-09T07:19:40.567Z,29.69
2018-04-09T07:20:41.145Z,29.78
2018-04-09T07:21:41.735Z,30.16
2018-04-09T07:22:42.303Z,30.45
2018-04-09T07:23:42.879Z,32.55
2018-04-09T07:24:43.455Z,32.65
2018-04-09T07:25:44.180Z,32.26
2018-04-09T07:26:44.755Z,34.08
2018-04-09T07:27:45.335Z,35.51
2018-04-09T07:28:45.907Z,35.32
2018-04-09T07:29:46.482Z,37.63
2018-04-09T07:30:47.055Z,39.42
2018-04-09T07:31:47.634Z,39.81
2018-04-09T07:32:48.209Z,40.57
2018-04-09T07:33:48.786Z,40.88
2018-04-09T07:34:49.375Z,44.12
2018-04-09T07:35:49.950Z,44.70
2018-04-09T07:36:50.524Z,44.51
2018-04-09T07:37:51.100Z,47.75
2018-04-09T07:38:51.675Z,47.18
2018-04-09T07:39:52.249Z,47.66
2018-04-09T07:40:52.824Z,48.04
2018-04-09T07:41:53.400Z,48.23
2018-04-09T07:42:53.981Z,46.99
2018-04-09T07:43:54.565Z,45.56
2018-04-09T07:44:55.141Z,47.66
2018-04-09T07:45:55.868Z,47.85
2018-04-09T07:46:56.442Z,46.03
2018-04-09T07:47:57.020Z,48.71
2018-04-09T07:48:57.606Z,47.47
2018-04-09T07:49:58.182Z,47.66
2018-04-09T07:50:58.770Z,48.90
2018-04-09T07:51:59.344Z,49.95
2018-04-09T07:52:59.921Z,50.71
2018-04-09T07:54:00.497Z,50.33
2018-04-09T07:55:01.075Z,51.21
2018-04-09T07:56:01.648Z,51.70
2018-04-09T07:57:02.234Z,50.90
2018-04-09T07:58:02.813Z,50.43
2018-04-09T07:59:03.388Z,52.75
2018-04-09T08:00:03.965Z,52.05
2018-04-09T08:01:04.694Z,50.90
2018-04-09T08:02:05.276Z,52.55
2018-04-09T08:03:05.851Z,52.75
2018-04-09T08:04:06.427Z,51.31
2018-04-09T08:05:07.005Z,52.75
2018-04-09T08:06:07.596Z,52.55
2018-04-09T08:07:08.157Z,53.32
2018-04-09T08:08:08.734Z,53.70
2018-04-09T08:09:09.310Z,54.08
2018-04-09T08:10:09.888Z,57.71
2018-04-09T08:11:10.461Z,56.67
2018-04-09T08:12:11.036Z,55.32
2018-04-09T08:13:11.613Z,54.85
2018-04-09T08:14:12.188Z,56.57
2018-04-09T08:15:12.762Z,55.23
2018-04-09T08:16:13.348Z,57.43
2018-04-09T08:17:13.923Z,56.67
2018-04-09T08:18:14.499Z,58.29
2018-04-09T08:19:15.075Z,58.29
2018-04-09T08:20:15.651Z,59.81
2018-04-09T08:21:16.230Z,59.53
2018-04-09T08:22:16.805Z,61.82
2018-04-09T08:23:17.381Z,60.77
2018-04-09T08:24:17.960Z,62.14
2018-04-09T08:25:18.534Z,64.05
2018-04-09T08:26:19.110Z,63.48
2018-04-09T08:27:19.688Z,64.34
2018-04-09T08:28:20.265Z,63.76
2018-04-09T08:29:20.852Z,63.19
2018-04-09T08:30:21.429Z,63.29
2018-04-09T08:31:22.007Z,63.19
2018-04-09T08:32:22.585Z,63.57
2018-04-09T08:33:23.170Z,64.15
2018-04-09T08:34:23.746Z,63.96
2018-04-09T08:35:24.323Z,63.76
2018-04-09T08:36:24.899Z,65.01
2018-04-09T08:37:25.476Z,64.91
2018-04-09T08:38:26.053Z,65.58
2018-04-09T08:39:26.630Z,64.53
2018-04-09T08:40:27.208Z,64.72
2018-04-09T08:41:27.783Z,65.97
2018-04-09T08:42:28.358Z,67.11
2018-04-09T08:43:28.934Z,67.49
2018-04-09T08:44:29.513Z,68.93
2018-04-09T08:45:30.088Z,70.21
2018-04-09T08:46:30.664Z,69.15
2018-04-09T08:47:31.239Z,70.21
2018-04-09T08:48:31.818Z,71.64
2018-04-09T08:49:32.395Z,72.22
2018-04-09T08:50:32.979Z,73.08
2018-04-09T08:51:33.557Z,72.41
2018-04-09T08:52:34.133Z,75.31
2018-04-09T08:53:34.710Z,73.75
2018-04-09T08:54:35.290Z,73.94
2018-04-09T08:55:35.913Z,74.41
2018-04-09T08:56:36.449Z,74.51
2018-04-09T08:57:37.026Z,75.41
2018-04-09T08:58:37.602Z,75.95
2018-04-09T08:59:38.178Z,76.08
2018-04-09T09:00:38.754Z,77.90
2018-04-09T09:01:39.337Z,77.94
2018-04-09T09:02:39.912Z,80.14
2018-04-09T09:03:40.501Z,80.29
2018-04-09T09:04:41.075Z,79.62
2018-04-09T09:05:41.650Z,77.94
2018-04-09T09:06:42.230Z,81.86
2018-04-09T09:07:42.807Z,83.44
2018-04-09T09:08:43.384Z,85.02
2018-04-09T09:09:43.960Z,82.92
2018-04-09T09:10:44.540Z,82.53
2018-04-09T09:11:45.117Z,84.35
2018-04-09T09:12:45.696Z,81.73
2018-04-09T09:13:46.271Z,81.96
2018-04-09T09:14:46.847Z,83.87
2018-04-09T09:15:47.425Z,81.96
2018-04-09T09:16:48.001Z,82.68
2018-04-09T09:17:48.577Z,81.15
2018-04-09T09:18:49.167Z,81.77
2018-04-09T09:19:49.742Z,80.43
2018-04-09T09:20:50.319Z,79.62
2018-04-09T09:21:50.909Z,82.15
2018-04-09T09:22:51.482Z,81.20
2018-04-09T09:23:52.060Z,81.00
2018-04-09T09:24:52.638Z,81.86
2018-04-09T09:25:53.214Z,83.49
2018-04-09T09:26:53.791Z,82.06
2018-04-09T09:27:54.381Z,85.06
2018-04-09T09:28:54.957Z,86.31
2018-04-09T09:29:55.535Z,85.35
2018-04-09T09:30:56.117Z,85.64
2018-04-09T09:31:56.694Z,85.02
2018-04-09T09:32:57.265Z,82.92
2018-04-09T09:33:57.842Z,81.38
2018-04-09T09:34:58.420Z,81.67
2018-04-09T09:35:58.999Z,81.29
2018-04-09T09:36:59.575Z,82.06
2018-04-09T09:38:00.152Z,81.86
2018-04-09T09:39:00.730Z,82.15
2018-04-09T09:40:01.308Z,82.53
2018-04-09T09:41:01.887Z,82.43
2018-04-09T09:42:02.467Z,81.77
2018-04-09T09:43:03.050Z,82.15
2018-04-09T09:44:03.627Z,82.57
2018-04-09T09:45:04.206Z,82.06
2018-04-09T09:46:04.786Z,81.00
2018-04-09T09:47:05.360Z,80.52
2018-04-09T09:48:05.938Z,80.67
2018-04-09T09:49:06.513Z,81.86
2018-04-09T09:50:07.092Z,82.73
2018-04-09T09:51:07.670Z,83.92
2018-04-09T09:52:08.248Z,83.82
2018-04-09T09:53:08.824Z,82.15
2018-04-09T09:54:09.402Z,83.39
2018-04-09T09:55:09.990Z,82.34
2018-04-09T09:56:10.569Z,81.20
2018-04-09T09:57:11.146Z,79.47
2018-04-09T09:58:11.728Z,80.43
2018-04-09T09:59:12.307Z,82.06
2018-04-09T10:00:12.883Z,81.29
2018-04-09T10:01:13.459Z,81.00
2018-04-09T10:02:14.036Z,81.29
2018-04-09T10:03:14.613Z,83.11
2018-04-09T10:04:15.192Z,83.92
2018-04-09T10:05:15.769Z,82.96
2018-04-09T10:06:16.348Z,84.68
2018-04-09T10:07:16.935Z,85.16
2018-04-09T10:08:17.512Z,82.06
2018-04-09T10:09:18.087Z,81.10
2018-04-09T10:10:18.663Z,84.20
2018-04-09T10:11:19.241Z,85.06
2018-04-09T10:12:19.820Z,85.93
2018-04-09T10:13:20.397Z,85.83
2018-04-09T10:14:20.974Z,85.06
2018-04-09T10:15:21.553Z,84.16
2018-04-09T10:16:22.130Z,84.11
2018-04-09T10:17:22.707Z,83.82
2018-04-09T10:18:23.284Z,84.58
2018-04-09T10:19:23.863Z,84.25
2018-04-09T10:20:24.442Z,88.37
2018-04-09T10:21:25.019Z,89.04
2018-04-09T10:22:25.595Z,88.75
2018-04-09T10:23:26.171Z,89.80
2018-04-09T10:24:26.749Z,88.08
2018-04-09T10:25:27.328Z,85.49
2018-04-09T10:26:27.905Z,89.04
2018-04-09T10:27:28.482Z,86.21
2018-04-09T10:28:29.060Z,88.27
2018-04-09T10:29:29.638Z,84.97
2018-04-09T10:30:30.216Z,90.33
2018-04-09T10:31:30.792Z,89.23
2018-04-09T10:32:31.370Z,88.84
2018-04-09T10:33:31.949Z,87.88
2018-04-09T10:34:32.527Z,87.50
2018-04-09T10:35:33.105Z,89.18
2018-04-09T10:36:33.681Z,89.61
2018-04-09T10:37:34.260Z,88.37
2018-04-09T10:38:34.839Z,87.60
2018-04-09T10:39:35.416Z,87.70
2018-04-09T10:40:35.993Z,88.75
2018-04-09T10:41:36.571Z,89.94
2018-04-09T10:42:37.148Z,89.47
2018-04-09T10:43:37.727Z,89.27
2018-04-09T10:44:38.317Z,89.65
2018-04-09T10:45:38.893Z,90.14
2018-04-09T10:46:39.473Z,90.85
2018-04-09T10:47:40.061Z,91.57
2018-04-09T10:48:40.654Z,89.94
2018-04-09T10:49:41.233Z,91.24
2018-04-09T10:50:41.818Z,91.19
2018-04-09T10:51:42.397Z,91.09
2018-04-09T10:52:42.975Z,90.23
2018-04-09T10:53:43.555Z,91.48
2018-04-09T10:54:44.143Z,91.57
2018-04-09T10:55:44.724Z,93.73
2018-04-09T10:56:45.302Z,93.54
2018-04-09T10:57:45.880Z,92.68
2018-04-09T10:58:46.458Z,94.83
2018-04-09T10:59:47.038Z,96.08
2018-04-09T11:00:47.619Z,95.26
2018-04-09T11:01:48.196Z,97.19
2018-04-09T11:02:48.777Z,96.18
2018-04-09T11:03:49.368Z,94.64
2018-04-09T11:04:49.947Z,95.21
2018-04-09T11:05:50.525Z,95.21
2018-04-09T11:06:51.103Z,93.54
2018-04-09T11:07:51.681Z,95.50
2018-04-09T11:08:52.261Z,96.08
2018-04-09T11:09:52.841Z,95.03
2018-04-09T11:10:53.422Z,93.20
2018-04-09T11:11:53.996Z,94.74
2018-04-09T11:12:54.586Z,96.56
2018-04-09T11:13:55.162Z,94.79
2018-04-09T11:14:55.751Z,94.49
2018-04-09T11:15:56.329Z,95.03
2018-04-09T11:16:56.907Z,96.94
2018-04-09T11:17:57.497Z,96.56
2018-04-09T11:18:58.074Z,95.03
2018-04-09T11:19:58.653Z,95.84
2018-04-09T11:20:59.234Z,95.50
2018-04-09T11:21:59.811Z,94.74
2018-04-09T11:23:00.390Z,96.66
2018-04-09T11:24:00.967Z,96.85
2018-04-09T11:25:01.548Z,98.05
2018-04-09T11:26:02.124Z,98.72
2018-04-09T11:27:02.703Z,96.80
2018-04-09T11:28:03.288Z,97.28
2018-04-09T11:29:03.862Z,98.05
2018-04-09T11:30:04.451Z,98.43
2018-04-09T11:31:05.040Z,97.57
2018-04-09T11:32:05.625Z,98.05
2018-04-09T11:33:06.209Z,96.94
2018-04-09T11:34:06.785Z,98.34
2018-04-09T11:35:07.362Z,97.81
2018-04-09T11:36:07.945Z,97.76
2018-04-09T11:37:08.542Z,97.57
2018-04-09T11:38:09.119Z,98.63
2018-04-09T11:39:09.697Z,97.57
2018-04-09T11:40:10.276Z,98.82
2018-04-09T11:41:10.855Z,99.58
2018-04-09T11:42:11.434Z,98.91
2018-04-09T11:43:12.086Z,99.15
2018-04-09T11:44:12.602Z,99.35
2018-04-09T11:45:13.180Z,99.06
2018-04-09T11:46:13.759Z,99.99
2018-04-09T11:47:14.341Z,98.63
2018-04-09T11:48:14.915Z,97.33
2018-04-09T11:49:15.496Z,99.99
2018-04-09T11:50:16.075Z,99.20
2018-04-09T11:51:16.653Z,97.86
2018-04-09T11:52:17.233Z,97.57
2018-04-09T11:53:17.811Z,98.48
2018-04-09T11:54:18.394Z,99.99
2018-04-09T11:55:18.981Z,99.97
2018-04-09T11:56:19.561Z,99.25
2018-04-09T11:57:20.140Z,99.99
2018-04-09T11:58:20.720Z,99.99
2018-04-09T11:59:21.301Z,99.99
2018-04-09T12:00:21.884Z,99.99
2018-04-09T12:01:22.464Z,99.99
2018-04-09T12:02:23.048Z,99.99
2018-04-09T12:03:23.633Z,99.99
2018-04-09T12:04:24.214Z,99.99
2018-04-09T12:05:24.794Z,99.99
2018-04-09T12:06:25.373Z,99.99
2018-04-09T12:07:25.952Z,99.99
2018-04-09T12:08:26.534Z,99.99
2018-04-09T12:09:27.115Z,99.99
2018-04-09T12:10:27.707Z,99.99
2018-04-09T12:11:28.289Z,99.99
2018-04-09T12:12:28.871Z,99.99
2018-04-09T12:13:29.449Z,99.99
2018-04-09T12:14:30.028Z,99.99
2018-04-09T12:15:30.610Z,99.99
2018-04-09T12:16:31.188Z,99.99
2018-04-09T12:17:31.770Z,99.99
2018-04-09T12:18:32.359Z,99.99
2018-04-09T12:19:32.941Z,99.99
2018-04-09T12:20:33.523Z,99.99
2018-04-09T12:21:34.111Z,99.99
2018-04-09T12:22:34.692Z,99.99
2018-04-09T12:23:35.271Z,99.99
2018-04-09T12:24:35.851Z,99.88
2018-04-09T12:25:36.433Z,99.73
2018-04-09T12:26:37.012Z,99.78
2018-04-09T12:27:37.592Z,99.99
2018-04-09T12:28:38.187Z,99.99
2018-04-09T12:29:38.750Z,99.73
2018-04-09T12:30:39.331Z,99.73
2018-04-09T12:31:39.910Z,99.83
2018-04-09T12:32:40.490Z,99.99
2018-04-09T12:33:41.081Z,99.99
2018-04-09T12:34:41.664Z,99.99
2018-04-09T12:35:42.241Z,99.99
2018-04-09T12:36:42.825Z,99.99
2018-04-09T12:37:43.401Z,99.69
2018-04-09T12:38:43.979Z,99.99
2018-04-09T12:39:44.558Z,99.99
2018-04-09T12:40:45.139Z,99.30
2018-04-09T12:41:45.728Z,98.72
2018-04-09T12:42:46.320Z,99.16
2018-04-09T12:43:46.898Z,99.35
2018-04-09T12:44:47.479Z,99.44
2018-04-09T12:45:48.060Z,99.06
2018-04-09T12:46:48.640Z,99.16
2018-04-09T12:47:49.219Z,99.35
2018-04-09T12:48:49.810Z,99.26
2018-04-09T12:49:50.390Z,98.77
2018-04-09T12:50:50.970Z,99.06
2018-04-09T12:51:51.550Z,99.44
2018-04-09T12:52:52.133Z,99.30
2018-04-09T12:53:52.709Z,99.88
2018-04-09T12:54:53.288Z,98.68
2018-04-09T12:55:53.866Z,99.26
2018-04-09T12:56:54.448Z,99.99
2018-04-09T12:57:55.020Z,99.99
2018-04-09T12:58:55.601Z,99.99
2018-04-09T12:59:56.180Z,99.99
2018-04-09T13:01:18.991Z,99.99
2018-04-09T13:02:19.570Z,99.99